sensor_id;sensor_type;location;lat;lon;timestamp;temperature;humidity
13998;DHT22;7074;51.508;7.018;2022-07-17T00:02:22;18.30;99.90
13998;DHT22;7074;51.508;7.018;2022-07-17T00:04:51;18.20;99.90
13998;DHT22;7074;51.508;7.018;2022-07-17T00:07:18;18.20;99.90
13998;DHT22;7074;51.508;7.018;2022-07-17T00:09:45;18.10;99.90
13998;DHT22;7074;51.508;7.018;2022-07-17T00:12:13;18.20;99.90
13998;DHT22;7074;51.508;7.018;2022-07-17T00:14:41;18.10;99.90
13998;DHT22;7074;51.508;7.018;2022-07-17T00:17:08;18.10;99.90
13998;DHT22;7074;51.508;7.018;2022-07-17T00:19:36;18.00;99.90
13998;DHT22;7074;51.508;7.018;2022-07-17T00:22:05;17.90;99.90
13998;DHT22;7074;51.508;7.018;2022-07-17T00:24:32;17.90;99.90
13998;DHT22;7074;51.508;7.018;2022-07-17T00:26:59;17.90;99.90
13998;DHT22;7074;51.508;7.018;2022-07-17T00:29:29;17.80;99.90
13998;DHT22;7074;51.508;7.018;2022-07-17T00:31:57;17.80;99.90
13998;DHT22;7074;51.508;7.018;2022-07-17T00:34:25;17.70;99.90
13998;DHT22;7074;51.508;7.018;2022-07-17T00:36:53;17.70;99.90
13998;DHT22;7074;51.508;7.018;2022-07-17T00:39:22;17.70;99.90
13998;DHT22;7074;51.508;7.018;2022-07-17T00:41:50;17.70;99.90
13998;DHT22;7074;51.508;7.018;2022-07-17T00:44:17;17.60;99.90
13998;DHT22;7074;51.508;7.018;2022-07-17T00:46:45;17.50;99.90
13998;DHT22;7074;51.508;7.018;2022-07-17T00:49:12;17.40;99.90
13998;DHT22;7074;51.508;7.018;2022-07-17T00:51:39;17.40;99.90
13998;DHT22;7074;51.508;7.018;2022-07-17T00:54:08;17.30;99.90
13998;DHT22;7074;51.508;7.018;2022-07-17T00:56:40;17.40;99.90
13998;DHT22;7074;51.508;7.018;2022-07-17T00:59:09;17.30;99.90
13998;DHT22;7074;51.508;7.018;2022-07-17T01:01:42;17.30;99.90
13998;DHT22;7074;51.508;7.018;2022-07-17T01:04:10;17.20;99.90
13998;DHT22;7074;51.508;7.018;2022-07-17T01:06:38;17.20;99.90
13998;DHT22;7074;51.508;7.018;2022-07-17T01:09:09;17.20;99.90
13998;DHT22;7074;51.508;7.018;2022-07-17T01:11:38;17.10;99.90
13998;DHT22;7074;51.508;7.018;2022-07-17T01:14:07;17.10;99.90
13998;DHT22;7074;51.508;7.018;2022-07-17T01:16:34;17.10;99.90
13998;DHT22;7074;51.508;7.018;2022-07-17T01:19:02;17.10;99.90
13998;DHT22;7074;51.508;7.018;2022-07-17T01:21:39;17.00;99.90
13998;DHT22;7074;51.508;7.018;2022-07-17T01:24:06;17.00;99.90
13998;DHT22;7074;51.508;7.018;2022-07-17T01:26:34;17.00;99.90
13998;DHT22;7074;51.508;7.018;2022-07-17T01:29:01;17.00;99.90
13998;DHT22;7074;51.508;7.018;2022-07-17T01:31:30;17.00;99.90
13998;DHT22;7074;51.508;7.018;2022-07-17T01:33:58;16.90;99.90
13998;DHT22;7074;51.508;7.018;2022-07-17T01:36:28;16.80;99.90
13998;DHT22;7074;51.508;7.018;2022-07-17T01:38:56;16.70;99.90
13998;DHT22;7074;51.508;7.018;2022-07-17T01:41:24;16.70;99.90
13998;DHT22;7074;51.508;7.018;2022-07-17T01:43:51;16.70;99.90
13998;DHT22;7074;51.508;7.018;2022-07-17T01:46:18;16.60;99.90
13998;DHT22;7074;51.508;7.018;2022-07-17T01:48:45;16.70;99.90
13998;DHT22;7074;51.508;7.018;2022-07-17T01:51:13;16.60;99.90
13998;DHT22;7074;51.508;7.018;2022-07-17T01:53:40;16.70;99.90
13998;DHT22;7074;51.508;7.018;2022-07-17T01:56:09;16.70;99.90
13998;DHT22;7074;51.508;7.018;2022-07-17T01:58:36;16.70;99.90
13998;DHT22;7074;51.508;7.018;2022-07-17T02:01:03;16.60;99.90
13998;DHT22;7074;51.508;7.018;2022-07-17T02:03:31;16.60;99.90
13998;DHT22;7074;51.508;7.018;2022-07-17T02:05:58;16.60;99.90
13998;DHT22;7074;51.508;7.018;2022-07-17T02:08:25;16.50;99.90
13998;DHT22;7074;51.508;7.018;2022-07-17T02:10:52;16.50;99.90
13998;DHT22;7074;51.508;7.018;2022-07-17T02:13:21;16.40;99.90
13998;DHT22;7074;51.508;7.018;2022-07-17T02:15:48;16.50;99.90
13998;DHT22;7074;51.508;7.018;2022-07-17T02:18:16;16.40;99.90
13998;DHT22;7074;51.508;7.018;2022-07-17T02:20:43;16.50;99.90
13998;DHT22;7074;51.508;7.018;2022-07-17T02:23:15;16.40;99.90
13998;DHT22;7074;51.508;7.018;2022-07-17T02:25:43;16.40;99.90
13998;DHT22;7074;51.508;7.018;2022-07-17T02:28:10;16.30;99.90
13998;DHT22;7074;51.508;7.018;2022-07-17T02:30:39;16.30;99.90
13998;DHT22;7074;51.508;7.018;2022-07-17T02:33:06;16.20;99.90
13998;DHT22;7074;51.508;7.018;2022-07-17T02:35:33;16.20;99.90
13998;DHT22;7074;51.508;7.018;2022-07-17T02:38:01;16.30;99.90
13998;DHT22;7074;51.508;7.018;2022-07-17T02:40:28;16.30;99.90
13998;DHT22;7074;51.508;7.018;2022-07-17T02:42:55;16.20;99.90
13998;DHT22;7074;51.508;7.018;2022-07-17T02:45:22;16.20;99.90
13998;DHT22;7074;51.508;7.018;2022-07-17T02:47:53;16.10;99.90
13998;DHT22;7074;51.508;7.018;2022-07-17T02:50:21;16.00;99.90
13998;DHT22;7074;51.508;7.018;2022-07-17T02:52:49;16.00;99.90
13998;DHT22;7074;51.508;7.018;2022-07-17T02:55:16;16.00;99.90
13998;DHT22;7074;51.508;7.018;2022-07-17T02:57:45;16.00;99.90
13998;DHT22;7074;51.508;7.018;2022-07-17T03:00:15;15.90;99.90
13998;DHT22;7074;51.508;7.018;2022-07-17T03:02:43;16.00;99.90
13998;DHT22;7074;51.508;7.018;2022-07-17T03:05:13;16.10;99.90
13998;DHT22;7074;51.508;7.018;2022-07-17T03:07:40;16.00;99.90
13998;DHT22;7074;51.508;7.018;2022-07-17T03:10:08;16.10;99.90
13998;DHT22;7074;51.508;7.018;2022-07-17T03:12:36;16.00;99.90
13998;DHT22;7074;51.508;7.018;2022-07-17T03:15:04;16.00;99.90
13998;DHT22;7074;51.508;7.018;2022-07-17T03:17:32;16.00;99.90
13998;DHT22;7074;51.508;7.018;2022-07-17T03:19:59;15.90;99.90
13998;DHT22;7074;51.508;7.018;2022-07-17T03:22:28;15.90;99.90
13998;DHT22;7074;51.508;7.018;2022-07-17T03:24:55;15.90;99.90
13998;DHT22;7074;51.508;7.018;2022-07-17T03:27:23;15.80;99.90
13998;DHT22;7074;51.508;7.018;2022-07-17T03:29:50;15.70;99.90
13998;DHT22;7074;51.508;7.018;2022-07-17T03:32:17;15.70;99.90
13998;DHT22;7074;51.508;7.018;2022-07-17T03:34:44;15.70;99.90
13998;DHT22;7074;51.508;7.018;2022-07-17T03:37:11;15.70;99.90
13998;DHT22;7074;51.508;7.018;2022-07-17T03:39:40;15.60;99.90
13998;DHT22;7074;51.508;7.018;2022-07-17T03:42:07;15.60;99.90
13998;DHT22;7074;51.508;7.018;2022-07-17T03:44:34;15.60;99.90
13998;DHT22;7074;51.508;7.018;2022-07-17T03:47:02;15.60;99.90
13998;DHT22;7074;51.508;7.018;2022-07-17T03:49:29;15.60;99.90
13998;DHT22;7074;51.508;7.018;2022-07-17T03:51:56;15.60;99.90
13998;DHT22;7074;51.508;7.018;2022-07-17T03:54:23;15.60;99.90
13998;DHT22;7074;51.508;7.018;2022-07-17T03:56:52;15.60;99.90
13998;DHT22;7074;51.508;7.018;2022-07-17T03:59:19;15.50;99.90
13998;DHT22;7074;51.508;7.018;2022-07-17T04:01:47;15.50;99.90
13998;DHT22;7074;51.508;7.018;2022-07-17T04:04:14;15.60;99.90
13998;DHT22;7074;51.508;7.018;2022-07-17T04:06:41;15.70;99.90
13998;DHT22;7074;51.508;7.018;2022-07-17T04:09:08;15.50;99.90
13998;DHT22;7074;51.508;7.018;2022-07-17T04:11:35;15.50;99.90
13998;DHT22;7074;51.508;7.018;2022-07-17T04:14:04;15.60;99.90
13998;DHT22;7074;51.508;7.018;2022-07-17T04:16:31;15.70;99.90
13998;DHT22;7074;51.508;7.018;2022-07-17T04:18:58;15.70;99.90
13998;DHT22;7074;51.508;7.018;2022-07-17T04:21:26;15.80;99.90
13998;DHT22;7074;51.508;7.018;2022-07-17T04:23:53;15.80;99.90
13998;DHT22;7074;51.508;7.018;2022-07-17T04:26:20;15.80;99.90
13998;DHT22;7074;51.508;7.018;2022-07-17T04:28:47;15.70;99.90
13998;DHT22;7074;51.508;7.018;2022-07-17T04:31:16;15.70;99.90
13998;DHT22;7074;51.508;7.018;2022-07-17T04:33:44;15.80;99.90
13998;DHT22;7074;51.508;7.018;2022-07-17T04:36:11;15.80;99.90
13998;DHT22;7074;51.508;7.018;2022-07-17T04:38:38;15.80;99.90
13998;DHT22;7074;51.508;7.018;2022-07-17T04:41:06;15.80;99.90
13998;DHT22;7074;51.508;7.018;2022-07-17T04:43:33;15.90;99.90
13998;DHT22;7074;51.508;7.018;2022-07-17T04:46:00;16.00;99.90
13998;DHT22;7074;51.508;7.018;2022-07-17T04:48:29;16.00;99.90
13998;DHT22;7074;51.508;7.018;2022-07-17T04:50:56;16.10;99.90
13998;DHT22;7074;51.508;7.018;2022-07-17T04:53:23;16.10;99.90
13998;DHT22;7074;51.508;7.018;2022-07-17T04:55:50;16.10;99.90
13998;DHT22;7074;51.508;7.018;2022-07-17T04:58:18;16.10;99.90
13998;DHT22;7074;51.508;7.018;2022-07-17T05:00:45;16.10;99.90
13998;DHT22;7074;51.508;7.018;2022-07-17T05:03:13;16.20;99.90
13998;DHT22;7074;51.508;7.018;2022-07-17T05:05:42;16.30;99.90
13998;DHT22;7074;51.508;7.018;2022-07-17T05:08:09;16.30;99.90
13998;DHT22;7074;51.508;7.018;2022-07-17T05:10:36;16.30;99.90
13998;DHT22;7074;51.508;7.018;2022-07-17T05:13:04;16.40;99.90
13998;DHT22;7074;51.508;7.018;2022-07-17T05:15:31;16.50;99.90
13998;DHT22;7074;51.508;7.018;2022-07-17T05:17:59;16.70;99.90
13998;DHT22;7074;51.508;7.018;2022-07-17T05:20:27;16.80;99.90
13998;DHT22;7074;51.508;7.018;2022-07-17T05:22:56;16.90;99.90
13998;DHT22;7074;51.508;7.018;2022-07-17T05:25:23;17.00;99.90
13998;DHT22;7074;51.508;7.018;2022-07-17T05:27:51;17.20;99.90
13998;DHT22;7074;51.508;7.018;2022-07-17T05:30:18;17.30;99.90
13998;DHT22;7074;51.508;7.018;2022-07-17T05:32:45;17.40;99.90
13998;DHT22;7074;51.508;7.018;2022-07-17T05:35:13;17.50;99.90
13998;DHT22;7074;51.508;7.018;2022-07-17T05:37:40;17.60;99.90
13998;DHT22;7074;51.508;7.018;2022-07-17T05:40:09;17.70;99.90
13998;DHT22;7074;51.508;7.018;2022-07-17T05:42:36;17.70;99.90
13998;DHT22;7074;51.508;7.018;2022-07-17T05:45:04;17.50;99.90
13998;DHT22;7074;51.508;7.018;2022-07-17T05:47:31;17.70;99.90
13998;DHT22;7074;51.508;7.018;2022-07-17T05:49:59;17.90;99.90
13998;DHT22;7074;51.508;7.018;2022-07-17T05:52:26;17.90;99.90
13998;DHT22;7074;51.508;7.018;2022-07-17T05:54:53;18.10;99.90
13998;DHT22;7074;51.508;7.018;2022-07-17T05:57:22;18.20;99.90
13998;DHT22;7074;51.508;7.018;2022-07-17T05:59:49;18.20;99.90
13998;DHT22;7074;51.508;7.018;2022-07-17T06:02:16;18.30;99.90
13998;DHT22;7074;51.508;7.018;2022-07-17T06:04:43;18.40;99.90
13998;DHT22;7074;51.508;7.018;2022-07-17T06:07:11;18.50;99.90
13998;DHT22;7074;51.508;7.018;2022-07-17T06:09:38;18.60;99.90
13998;DHT22;7074;51.508;7.018;2022-07-17T06:12:06;18.70;99.90
13998;DHT22;7074;51.508;7.018;2022-07-17T06:14:35;18.90;99.90
13998;DHT22;7074;51.508;7.018;2022-07-17T06:17:02;18.90;99.90
13998;DHT22;7074;51.508;7.018;2022-07-17T06:19:30;19.00;99.90
13998;DHT22;7074;51.508;7.018;2022-07-17T06:21:57;19.20;99.90
13998;DHT22;7074;51.508;7.018;2022-07-17T06:24:24;19.20;99.90
13998;DHT22;7074;51.508;7.018;2022-07-17T06:26:51;19.30;99.90
13998;DHT22;7074;51.508;7.018;2022-07-17T06:29:19;19.40;99.90
13998;DHT22;7074;51.508;7.018;2022-07-17T06:31:47;19.60;99.90
13998;DHT22;7074;51.508;7.018;2022-07-17T06:34:15;19.60;99.90
13998;DHT22;7074;51.508;7.018;2022-07-17T06:36:42;19.50;99.90
13998;DHT22;7074;51.508;7.018;2022-07-17T06:39:09;19.70;99.90
13998;DHT22;7074;51.508;7.018;2022-07-17T06:41:36;19.80;99.90
13998;DHT22;7074;51.508;7.018;2022-07-17T06:44:04;19.80;99.90
13998;DHT22;7074;51.508;7.018;2022-07-17T06:46:31;20.00;99.90
13998;DHT22;7074;51.508;7.018;2022-07-17T06:49:00;20.10;99.90
13998;DHT22;7074;51.508;7.018;2022-07-17T06:51:27;20.10;99.90
13998;DHT22;7074;51.508;7.018;2022-07-17T06:53:54;20.20;99.90
13998;DHT22;7074;51.508;7.018;2022-07-17T06:56:21;20.00;99.90
13998;DHT22;7074;51.508;7.018;2022-07-17T06:58:49;20.00;99.90
13998;DHT22;7074;51.508;7.018;2022-07-17T07:01:16;20.00;99.90
13998;DHT22;7074;51.508;7.018;2022-07-17T07:03:43;20.20;99.90
13998;DHT22;7074;51.508;7.018;2022-07-17T07:06:12;20.40;99.90
13998;DHT22;7074;51.508;7.018;2022-07-17T07:08:39;20.70;99.90
13998;DHT22;7074;51.508;7.018;2022-07-17T07:11:07;20.80;99.90
13998;DHT22;7074;51.508;7.018;2022-07-17T07:13:34;20.90;99.50
13998;DHT22;7074;51.508;7.018;2022-07-17T07:16:01;21.00;99.30
13998;DHT22;7074;51.508;7.018;2022-07-17T07:18:29;20.80;99.20
13998;DHT22;7074;51.508;7.018;2022-07-17T07:20:56;20.90;99.50
13998;DHT22;7074;51.508;7.018;2022-07-17T07:23:24;21.10;98.90
13998;DHT22;7074;51.508;7.018;2022-07-17T07:25:52;20.90;98.80
13998;DHT22;7074;51.508;7.018;2022-07-17T07:28:19;21.20;99.50
13998;DHT22;7074;51.508;7.018;2022-07-17T07:30:47;21.20;99.20
13998;DHT22;7074;51.508;7.018;2022-07-17T07:33:14;21.40;99.00
13998;DHT22;7074;51.508;7.018;2022-07-17T07:35:42;21.70;98.40
13998;DHT22;7074;51.508;7.018;2022-07-17T07:38:10;21.60;97.70
13998;DHT22;7074;51.508;7.018;2022-07-17T07:40:39;21.50;97.70
13998;DHT22;7074;51.508;7.018;2022-07-17T07:43:06;21.30;97.10
13998;DHT22;7074;51.508;7.018;2022-07-17T07:45:34;21.40;98.00
13998;DHT22;7074;51.508;7.018;2022-07-17T07:48:01;21.80;97.40
13998;DHT22;7074;51.508;7.018;2022-07-17T07:50:28;22.00;96.70
13998;DHT22;7074;51.508;7.018;2022-07-17T07:52:56;22.10;96.90
13998;DHT22;7074;51.508;7.018;2022-07-17T07:55:23;21.90;96.10
13998;DHT22;7074;51.508;7.018;2022-07-17T07:58:03;22.30;96.40
13998;DHT22;7074;51.508;7.018;2022-07-17T08:00:30;22.60;96.40
13998;DHT22;7074;51.508;7.018;2022-07-17T08:02:58;22.80;95.80
13998;DHT22;7074;51.508;7.018;2022-07-17T08:05:25;22.80;95.30
13998;DHT22;7074;51.508;7.018;2022-07-17T08:07:53;22.90;94.70
13998;DHT22;7074;51.508;7.018;2022-07-17T08:10:20;23.00;94.50
13998;DHT22;7074;51.508;7.018;2022-07-17T08:12:47;22.90;94.00
13998;DHT22;7074;51.508;7.018;2022-07-17T08:15:19;22.70;93.60
13998;DHT22;7074;51.508;7.018;2022-07-17T08:17:47;22.80;93.80
13998;DHT22;7074;51.508;7.018;2022-07-17T08:20:15;23.10;94.70
13998;DHT22;7074;51.508;7.018;2022-07-17T08:22:45;23.20;94.40
13998;DHT22;7074;51.508;7.018;2022-07-17T08:25:13;23.00;92.80
13998;DHT22;7074;51.508;7.018;2022-07-17T08:27:42;22.90;93.10
13998;DHT22;7074;51.508;7.018;2022-07-17T08:30:12;22.90;93.00
13998;DHT22;7074;51.508;7.018;2022-07-17T08:32:41;22.60;92.90
13998;DHT22;7074;51.508;7.018;2022-07-17T08:35:11;22.70;93.50
13998;DHT22;7074;51.508;7.018;2022-07-17T08:37:45;23.10;93.30
13998;DHT22;7074;51.508;7.018;2022-07-17T08:40:20;23.40;92.70
13998;DHT22;7074;51.508;7.018;2022-07-17T08:42:48;23.50;92.10
13998;DHT22;7074;51.508;7.018;2022-07-17T08:45:16;23.30;92.90
13998;DHT22;7074;51.508;7.018;2022-07-17T08:47:44;23.30;91.90
13998;DHT22;7074;51.508;7.018;2022-07-17T08:50:13;23.40;92.10
13998;DHT22;7074;51.508;7.018;2022-07-17T08:52:42;23.70;91.50
13998;DHT22;7074;51.508;7.018;2022-07-17T08:55:11;23.60;91.50
13998;DHT22;7074;51.508;7.018;2022-07-17T08:57:40;23.90;91.60
13998;DHT22;7074;51.508;7.018;2022-07-17T09:00:09;23.90;90.90
13998;DHT22;7074;51.508;7.018;2022-07-17T09:02:37;23.90;90.30
13998;DHT22;7074;51.508;7.018;2022-07-17T09:05:07;23.30;89.80
13998;DHT22;7074;51.508;7.018;2022-07-17T09:07:45;23.30;90.60
13998;DHT22;7074;51.508;7.018;2022-07-17T09:10:12;23.20;90.50
13998;DHT22;7074;51.508;7.018;2022-07-17T09:12:40;23.40;90.60
13998;DHT22;7074;51.508;7.018;2022-07-17T09:15:16;23.80;89.90
13998;DHT22;7074;51.508;7.018;2022-07-17T09:17:50;23.40;88.90
13998;DHT22;7074;51.508;7.018;2022-07-17T09:20:19;23.70;88.90
13998;DHT22;7074;51.508;7.018;2022-07-17T09:22:56;24.00;88.80
13998;DHT22;7074;51.508;7.018;2022-07-17T09:25:34;24.40;87.20
13998;DHT22;7074;51.508;7.018;2022-07-17T09:28:03;24.50;85.20
13998;DHT22;7074;51.508;7.018;2022-07-17T09:30:31;24.70;85.40
13998;DHT22;7074;51.508;7.018;2022-07-17T09:32:59;24.80;84.00
13998;DHT22;7074;51.508;7.018;2022-07-17T09:35:27;24.60;80.70
13998;DHT22;7074;51.508;7.018;2022-07-17T09:37:55;24.70;80.10
13998;DHT22;7074;51.508;7.018;2022-07-17T09:40:22;24.70;80.60
13998;DHT22;7074;51.508;7.018;2022-07-17T09:43:07;24.40;79.80
13998;DHT22;7074;51.508;7.018;2022-07-17T09:45:35;24.30;80.70
13998;DHT22;7074;51.508;7.018;2022-07-17T09:48:03;24.70;82.90
13998;DHT22;7074;51.508;7.018;2022-07-17T09:50:33;24.70;80.20
13998;DHT22;7074;51.508;7.018;2022-07-17T09:53:02;24.50;78.80
13998;DHT22;7074;51.508;7.018;2022-07-17T09:55:30;24.80;79.70
13998;DHT22;7074;51.508;7.018;2022-07-17T09:57:59;25.20;78.60
13998;DHT22;7074;51.508;7.018;2022-07-17T10:00:28;24.90;78.10
13998;DHT22;7074;51.508;7.018;2022-07-17T10:02:55;25.10;77.80
13998;DHT22;7074;51.508;7.018;2022-07-17T10:05:24;25.20;78.20
13998;DHT22;7074;51.508;7.018;2022-07-17T10:07:53;25.20;76.70
13998;DHT22;7074;51.508;7.018;2022-07-17T10:10:20;25.30;75.70
13998;DHT22;7074;51.508;7.018;2022-07-17T10:12:49;25.00;75.00
13998;DHT22;7074;51.508;7.018;2022-07-17T10:15:17;25.20;75.50
13998;DHT22;7074;51.508;7.018;2022-07-17T10:17:46;25.50;73.00
13998;DHT22;7074;51.508;7.018;2022-07-17T10:20:24;25.50;71.50
13998;DHT22;7074;51.508;7.018;2022-07-17T10:22:53;25.70;71.60
13998;DHT22;7074;51.508;7.018;2022-07-17T10:25:21;25.80;71.90
13998;DHT22;7074;51.508;7.018;2022-07-17T10:27:49;25.90;71.20
13998;DHT22;7074;51.508;7.018;2022-07-17T10:30:24;25.70;70.70
13998;DHT22;7074;51.508;7.018;2022-07-17T10:32:54;25.80;71.20
13998;DHT22;7074;51.508;7.018;2022-07-17T10:35:22;25.60;70.90
13998;DHT22;7074;51.508;7.018;2022-07-17T10:37:49;25.80;71.30
13998;DHT22;7074;51.508;7.018;2022-07-17T10:40:19;25.90;69.10
13998;DHT22;7074;51.508;7.018;2022-07-17T10:42:58;26.10;68.10
13998;DHT22;7074;51.508;7.018;2022-07-17T10:45:31;26.40;69.20
13998;DHT22;7074;51.508;7.018;2022-07-17T10:48:03;26.60;67.00
13998;DHT22;7074;51.508;7.018;2022-07-17T10:50:33;26.50;66.10
13998;DHT22;7074;51.508;7.018;2022-07-17T10:53:10;26.40;65.40
13998;DHT22;7074;51.508;7.018;2022-07-17T10:55:41;26.70;64.90
13998;DHT22;7074;51.508;7.018;2022-07-17T10:58:21;26.50;63.70
13998;DHT22;7074;51.508;7.018;2022-07-17T11:01:13;26.20;63.80
13998;DHT22;7074;51.508;7.018;2022-07-17T11:03:42;26.10;64.30
13998;DHT22;7074;51.508;7.018;2022-07-17T11:06:12;26.00;63.90
13998;DHT22;7074;51.508;7.018;2022-07-17T11:08:41;26.20;64.50
13998;DHT22;7074;51.508;7.018;2022-07-17T11:11:10;26.30;62.80
13998;DHT22;7074;51.508;7.018;2022-07-17T11:13:38;26.30;64.40
13998;DHT22;7074;51.508;7.018;2022-07-17T11:16:05;26.50;62.40
13998;DHT22;7074;51.508;7.018;2022-07-17T11:18:34;25.90;62.50
13998;DHT22;7074;51.508;7.018;2022-07-17T11:21:04;26.40;62.00
13998;DHT22;7074;51.508;7.018;2022-07-17T11:23:33;26.50;61.00
13998;DHT22;7074;51.508;7.018;2022-07-17T11:26:04;26.90;59.80
13998;DHT22;7074;51.508;7.018;2022-07-17T11:28:37;27.20;58.70
13998;DHT22;7074;51.508;7.018;2022-07-17T11:31:16;27.10;57.70
13998;DHT22;7074;51.508;7.018;2022-07-17T11:33:49;26.40;58.30
13998;DHT22;7074;51.508;7.018;2022-07-17T11:36:21;26.40;58.40
13998;DHT22;7074;51.508;7.018;2022-07-17T11:38:48;26.90;58.80
13998;DHT22;7074;51.508;7.018;2022-07-17T11:41:16;26.20;58.30
13998;DHT22;7074;51.508;7.018;2022-07-17T11:43:45;26.70;60.00
13998;DHT22;7074;51.508;7.018;2022-07-17T11:46:14;27.10;58.90
13998;DHT22;7074;51.508;7.018;2022-07-17T11:48:42;27.10;57.90
13998;DHT22;7074;51.508;7.018;2022-07-17T11:51:10;26.80;56.40
13998;DHT22;7074;51.508;7.018;2022-07-17T11:53:39;27.30;56.90
13998;DHT22;7074;51.508;7.018;2022-07-17T11:56:07;27.60;56.90
13998;DHT22;7074;51.508;7.018;2022-07-17T11:58:43;27.60;55.30
13998;DHT22;7074;51.508;7.018;2022-07-17T12:01:16;27.70;56.40
13998;DHT22;7074;51.508;7.018;2022-07-17T12:03:43;27.60;55.50
13998;DHT22;7074;51.508;7.018;2022-07-17T12:06:10;27.90;54.30
13998;DHT22;7074;51.508;7.018;2022-07-17T12:08:38;28.00;53.50
13998;DHT22;7074;51.508;7.018;2022-07-17T12:11:06;27.70;53.00
13998;DHT22;7074;51.508;7.018;2022-07-17T12:13:41;27.80;53.10
13998;DHT22;7074;51.508;7.018;2022-07-17T12:16:25;27.50;52.50
13998;DHT22;7074;51.508;7.018;2022-07-17T12:19:11;27.70;53.00
13998;DHT22;7074;51.508;7.018;2022-07-17T12:21:52;28.10;52.40
13998;DHT22;7074;51.508;7.018;2022-07-17T12:24:25;28.50;51.60
13998;DHT22;7074;51.508;7.018;2022-07-17T12:26:54;28.50;50.70
13998;DHT22;7074;51.508;7.018;2022-07-17T12:29:22;28.60;50.50
13998;DHT22;7074;51.508;7.018;2022-07-17T12:32:00;28.50;50.20
13998;DHT22;7074;51.508;7.018;2022-07-17T12:34:28;28.80;49.50
13998;DHT22;7074;51.508;7.018;2022-07-17T12:36:55;28.90;50.00
13998;DHT22;7074;51.508;7.018;2022-07-17T12:39:22;29.10;48.20
13998;DHT22;7074;51.508;7.018;2022-07-17T12:41:50;29.30;47.60
13998;DHT22;7074;51.508;7.018;2022-07-17T12:44:18;29.20;47.10
13998;DHT22;7074;51.508;7.018;2022-07-17T12:46:45;29.00;47.10
13998;DHT22;7074;51.508;7.018;2022-07-17T12:49:14;28.50;47.30
13998;DHT22;7074;51.508;7.018;2022-07-17T12:51:41;28.80;48.20
13998;DHT22;7074;51.508;7.018;2022-07-17T12:54:08;29.10;48.10
13998;DHT22;7074;51.508;7.018;2022-07-17T12:56:36;29.20;47.60
13998;DHT22;7074;51.508;7.018;2022-07-17T12:59:03;29.20;47.10
13998;DHT22;7074;51.508;7.018;2022-07-17T13:01:30;29.10;47.50
13998;DHT22;7074;51.508;7.018;2022-07-17T13:03:58;28.50;46.30
13998;DHT22;7074;51.508;7.018;2022-07-17T13:06:27;28.50;46.60
13998;DHT22;7074;51.508;7.018;2022-07-17T13:08:54;29.00;47.40
13998;DHT22;7074;51.508;7.018;2022-07-17T13:11:21;28.60;45.90
13998;DHT22;7074;51.508;7.018;2022-07-17T13:13:49;28.90;45.70
13998;DHT22;7074;51.508;7.018;2022-07-17T13:16:16;29.30;46.30
13998;DHT22;7074;51.508;7.018;2022-07-17T13:18:43;29.40;45.10
13998;DHT22;7074;51.508;7.018;2022-07-17T13:21:11;29.50;44.00
13998;DHT22;7074;51.508;7.018;2022-07-17T13:23:39;30.10;44.80
13998;DHT22;7074;51.508;7.018;2022-07-17T13:26:07;30.50;44.50
13998;DHT22;7074;51.508;7.018;2022-07-17T13:28:34;30.20;43.20
13998;DHT22;7074;51.508;7.018;2022-07-17T13:31:02;30.70;43.00
13998;DHT22;7074;51.508;7.018;2022-07-17T13:33:30;29.80;41.00
13998;DHT22;7074;51.508;7.018;2022-07-17T13:35:57;30.10;41.50
13998;DHT22;7074;51.508;7.018;2022-07-17T13:38:24;30.20;41.30
13998;DHT22;7074;51.508;7.018;2022-07-17T13:40:53;30.30;40.90
13998;DHT22;7074;51.508;7.018;2022-07-17T13:43:20;30.10;40.90
13998;DHT22;7074;51.508;7.018;2022-07-17T13:45:48;30.50;40.00
13998;DHT22;7074;51.508;7.018;2022-07-17T13:48:15;30.60;39.30
13998;DHT22;7074;51.508;7.018;2022-07-17T13:50:44;30.00;39.20
13998;DHT22;7074;51.508;7.018;2022-07-17T13:53:11;29.90;38.50
13998;DHT22;7074;51.508;7.018;2022-07-17T13:55:38;29.40;39.30
13998;DHT22;7074;51.508;7.018;2022-07-17T13:58:07;29.70;38.00
13998;DHT22;7074;51.508;7.018;2022-07-17T14:00:34;29.10;37.00
13998;DHT22;7074;51.508;7.018;2022-07-17T14:03:02;29.40;35.70
13998;DHT22;7074;51.508;7.018;2022-07-17T14:05:30;29.60;35.90
13998;DHT22;7074;51.508;7.018;2022-07-17T14:07:57;29.70;35.90
13998;DHT22;7074;51.508;7.018;2022-07-17T14:10:25;30.10;36.70
13998;DHT22;7074;51.508;7.018;2022-07-17T14:12:52;30.10;36.20
13998;DHT22;7074;51.508;7.018;2022-07-17T14:15:21;30.50;36.60
13998;DHT22;7074;51.508;7.018;2022-07-17T14:17:48;30.70;36.70
13998;DHT22;7074;51.508;7.018;2022-07-17T14:20:15;30.90;36.30
13998;DHT22;7074;51.508;7.018;2022-07-17T14:22:43;31.00;36.50
13998;DHT22;7074;51.508;7.018;2022-07-17T14:25:10;30.80;36.50
13998;DHT22;7074;51.508;7.018;2022-07-17T14:27:38;30.60;38.00
13998;DHT22;7074;51.508;7.018;2022-07-17T14:30:06;30.50;39.00
13998;DHT22;7074;51.508;7.018;2022-07-17T14:32:35;30.70;39.50
13998;DHT22;7074;51.508;7.018;2022-07-17T14:35:03;30.80;39.10
13998;DHT22;7074;51.508;7.018;2022-07-17T14:37:30;30.60;38.70
13998;DHT22;7074;51.508;7.018;2022-07-17T14:39:58;30.80;38.50
13998;DHT22;7074;51.508;7.018;2022-07-17T14:42:26;30.90;38.80
13998;DHT22;7074;51.508;7.018;2022-07-17T14:44:54;30.80;38.30
13998;DHT22;7074;51.508;7.018;2022-07-17T14:47:21;29.80;39.00
13998;DHT22;7074;51.508;7.018;2022-07-17T14:49:49;30.10;39.40
13998;DHT22;7074;51.508;7.018;2022-07-17T14:52:16;30.30;38.90
13998;DHT22;7074;51.508;7.018;2022-07-17T14:54:44;30.80;39.30
13998;DHT22;7074;51.508;7.018;2022-07-17T14:57:11;30.60;39.20
13998;DHT22;7074;51.508;7.018;2022-07-17T14:59:38;30.60;39.60
13998;DHT22;7074;51.508;7.018;2022-07-17T15:02:05;30.50;39.60
13998;DHT22;7074;51.508;7.018;2022-07-17T15:04:33;30.90;39.80
13998;DHT22;7074;51.508;7.018;2022-07-17T15:07:02;30.90;38.80
13998;DHT22;7074;51.508;7.018;2022-07-17T15:09:30;30.80;38.40
13998;DHT22;7074;51.508;7.018;2022-07-17T15:11:57;31.00;38.60
13998;DHT22;7074;51.508;7.018;2022-07-17T15:14:24;31.10;38.80
13998;DHT22;7074;51.508;7.018;2022-07-17T15:16:51;30.60;38.50
13998;DHT22;7074;51.508;7.018;2022-07-17T15:19:19;30.40;38.80
13998;DHT22;7074;51.508;7.018;2022-07-17T15:21:46;30.60;38.50
13998;DHT22;7074;51.508;7.018;2022-07-17T15:24:15;30.80;38.20
13998;DHT22;7074;51.508;7.018;2022-07-17T15:26:42;30.70;37.70
13998;DHT22;7074;51.508;7.018;2022-07-17T15:29:10;30.80;38.60
13998;DHT22;7074;51.508;7.018;2022-07-17T15:31:37;30.70;37.90
13998;DHT22;7074;51.508;7.018;2022-07-17T15:34:05;30.90;37.40
13998;DHT22;7074;51.508;7.018;2022-07-17T15:36:32;30.90;37.10
13998;DHT22;7074;51.508;7.018;2022-07-17T15:38:59;31.10;37.30
13998;DHT22;7074;51.508;7.018;2022-07-17T15:41:27;31.30;37.60
13998;DHT22;7074;51.508;7.018;2022-07-17T15:43:55;31.30;38.20
13998;DHT22;7074;51.508;7.018;2022-07-17T15:46:22;31.40;38.70
13998;DHT22;7074;51.508;7.018;2022-07-17T15:48:49;31.50;38.60
13998;DHT22;7074;51.508;7.018;2022-07-17T15:51:17;31.70;38.60
13998;DHT22;7074;51.508;7.018;2022-07-17T15:53:45;31.80;38.90